KMWO/MWO METAR and TAF weather

Enter ICAO airport designator
Station Type Date Time Source
KMWO METAR 2018/12/13 09:15 UTC NOAA

KMWO 130915Z AUTO 00000KT 10SM OVC019 01/00 A3007 RMK AO2 T00101001


Station Type Date Time Source
KMWO Decoded METAR 2018/12/13 09:15 UTC NOAA

Station name not available
Dec 13, 2018 - 04:15 AM EST / 2018.12.13 0915 UTC
Wind: Calm:0
Visibility: 10 mile(s):0
Sky conditions: overcast
Temperature: 33.8 F (1.0 C)
Dew Point: 31.8 F (-0.1 C)
Relative Humidity: 92%
Pressure (altimeter): 30.07 in. Hg (1018 hPa)
ob: KMWO 130915Z AUTO 00000KT 10SM OVC019 01/00 A3007 RMK AO2 T00101001
cycle: 9

Station Type Date Time Source
KMWO TAF UTC NOAA

Error!


Example: see airport list